EGPN/DND METAR and TAF weather

Enter ICAO airport designator
Station Type Date Time Source
EGPN METAR 2021/01/20 15:50 UTC NOAA

EGPN 201550Z 25005KT 3000 BR OVC002 03/03 Q0977


Station Type Date Time Source
EGPN Decoded METAR 2021/01/20 15:50 UTC NOAA

Dundee / Riverside, United Kingdom (EGPN) 56-27N 003-01W
Jan 20, 2021 - 10:50 AM EST / 2021.01.20 1550 UTC
Wind: from the WSW (250 degrees) at 6 MPH (5 KT):0
Visibility: 1 mile(s):0
Sky conditions: overcast
Weather: mist
Temperature: 37 F (3 C)
Dew Point: 37 F (3 C)
Relative Humidity: 100%
Pressure (altimeter): 28.85 in. Hg (0977 hPa)
ob: EGPN 201550Z 25005KT 3000 BR OVC002 03/03 Q0977
cycle: 16

Station Type Date Time Source
EGPN TAF 2019/01/15 18:56 UTC NOAA

TAF EGPN 151750Z 1518/1621 CNL

Example: see airport list